sensor_id;sensor_type;location;lat;lon;timestamp;pressure;altitude;pressure_sealevel;temperature;humidity
71491;BME280;59307;50.060;9.150;2022-08-23T00:02:22;98685.22;;;20.58;47.30
71491;BME280;59307;50.060;9.150;2022-08-23T00:04:47;98686.44;;;20.52;47.14
71491;BME280;59307;50.060;9.150;2022-08-23T00:07:14;98680.72;;;20.41;47.76
71491;BME280;59307;50.060;9.150;2022-08-23T00:09:40;98680.25;;;20.48;47.68
71491;BME280;59307;50.060;9.150;2022-08-23T00:12:16;98685.22;;;20.41;47.85
71491;BME280;59307;50.060;9.150;2022-08-23T00:14:47;98677.16;;;20.37;47.65
71491;BME280;59307;50.060;9.150;2022-08-23T00:17:13;98679.03;;;20.37;47.72
71491;BME280;59307;50.060;9.150;2022-08-23T00:19:40;98678.72;;;20.30;48.00
71491;BME280;59307;50.060;9.150;2022-08-23T00:22:07;98676.06;;;20.30;48.14
71491;BME280;59307;50.060;9.150;2022-08-23T00:24:33;98680.91;;;20.27;48.14
71491;BME280;59307;50.060;9.150;2022-08-23T00:27:09;98677.97;;;20.20;48.67
71491;BME280;59307;50.060;9.150;2022-08-23T00:29:47;98675.59;;;20.10;48.67
71491;BME280;59307;50.060;9.150;2022-08-23T00:32:20;98669.84;;;20.08;48.83
71491;BME280;59307;50.060;9.150;2022-08-23T00:34:46;98667.22;;;20.08;49.00
71491;BME280;59307;50.060;9.150;2022-08-23T00:37:12;98664.13;;;20.06;49.26
71491;BME280;59307;50.060;9.150;2022-08-23T00:39:39;98663.34;;;20.06;49.06
71491;BME280;59307;50.060;9.150;2022-08-23T00:42:48;98670.78;;;20.04;49.12
71491;BME280;59307;50.060;9.150;2022-08-23T00:46:14;98667.97;;;19.92;49.73
71491;BME280;59307;50.060;9.150;2022-08-23T00:48:55;98671.53;;;19.79;50.19
71491;BME280;59307;50.060;9.150;2022-08-23T00:51:49;98669.69;;;19.79;50.03
71491;BME280;59307;50.060;9.150;2022-08-23T00:54:19;98661.78;;;19.79;50.05
71491;BME280;59307;50.060;9.150;2022-08-23T00:56:45;98662.41;;;19.76;49.94
71491;BME280;59307;50.060;9.150;2022-08-23T00:59:10;98661.94;;;19.83;50.15
71491;BME280;59307;50.060;9.150;2022-08-23T01:01:36;98668.44;;;19.77;50.74
71491;BME280;59307;50.060;9.150;2022-08-23T01:04:02;98667.81;;;19.71;50.20
71491;BME280;59307;50.060;9.150;2022-08-23T01:06:49;98669.53;;;19.76;50.69
71491;BME280;59307;50.060;9.150;2022-08-23T01:09:20;98667.19;;;19.66;50.76
71491;BME280;59307;50.060;9.150;2022-08-23T01:12:08;98663.91;;;19.60;51.54
71491;BME280;59307;50.060;9.150;2022-08-23T01:15:04;98673.53;;;19.56;51.33
71491;BME280;59307;50.060;9.150;2022-08-23T01:17:34;98670.72;;;19.53;51.27
71491;BME280;59307;50.060;9.150;2022-08-23T01:20:06;98666.25;;;19.53;51.41
71491;BME280;59307;50.060;9.150;2022-08-23T01:22:45;98664.66;;;19.44;52.38
71491;BME280;59307;50.060;9.150;2022-08-23T01:25:16;98673.84;;;19.46;51.55
71491;BME280;59307;50.060;9.150;2022-08-23T01:27:44;98665.44;;;19.44;51.77
71491;BME280;59307;50.060;9.150;2022-08-23T01:30:11;98673.38;;;19.44;51.76
71491;BME280;59307;50.060;9.150;2022-08-23T01:32:45;98674.31;;;19.48;51.55
71491;BME280;59307;50.060;9.150;2022-08-23T01:35:12;98678.16;;;19.34;52.73
71491;BME280;59307;50.060;9.150;2022-08-23T01:37:38;98668.63;;;19.24;54.05
71491;BME280;59307;50.060;9.150;2022-08-23T01:40:04;98677.91;;;19.13;53.62
71491;BME280;59307;50.060;9.150;2022-08-23T01:42:30;98677.97;;;18.91;54.83
71491;BME280;59307;50.060;9.150;2022-08-23T01:44:55;98678.06;;;18.77;55.39
71491;BME280;59307;50.060;9.150;2022-08-23T01:47:21;98685.94;;;18.77;55.06
71491;BME280;59307;50.060;9.150;2022-08-23T01:49:46;98682.94;;;18.92;54.68
71491;BME280;59307;50.060;9.150;2022-08-23T01:52:11;98680.84;;;18.81;55.06
71491;BME280;59307;50.060;9.150;2022-08-23T01:54:37;98676.00;;;18.74;55.38
71491;BME280;59307;50.060;9.150;2022-08-23T01:57:04;98681.28;;;18.74;54.36
71491;BME280;59307;50.060;9.150;2022-08-23T01:59:30;98680.41;;;18.87;53.67
71491;BME280;59307;50.060;9.150;2022-08-23T02:01:55;98677.28;;;18.85;55.25
71491;BME280;59307;50.060;9.150;2022-08-23T02:04:20;98681.53;;;18.64;55.19
71491;BME280;59307;50.060;9.150;2022-08-23T02:06:46;98675.72;;;18.76;55.72
71491;BME280;59307;50.060;9.150;2022-08-23T02:09:12;98682.91;;;18.62;55.74
71491;BME280;59307;50.060;9.150;2022-08-23T02:11:40;98676.22;;;18.56;55.67
71491;BME280;59307;50.060;9.150;2022-08-23T02:14:08;98674.53;;;18.37;56.81
71491;BME280;59307;50.060;9.150;2022-08-23T02:16:38;98670.94;;;18.33;55.79
71491;BME280;59307;50.060;9.150;2022-08-23T02:19:07;98674.91;;;18.45;56.18
71491;BME280;59307;50.060;9.150;2022-08-23T02:21:35;98682.72;;;18.36;56.28
71491;BME280;59307;50.060;9.150;2022-08-23T02:24:06;98679.78;;;18.37;56.89
71491;BME280;59307;50.060;9.150;2022-08-23T02:26:35;98681.81;;;18.40;56.04
71491;BME280;59307;50.060;9.150;2022-08-23T02:29:00;98687.00;;;18.46;55.50
71491;BME280;59307;50.060;9.150;2022-08-23T02:31:25;98684.00;;;18.38;56.95
71491;BME280;59307;50.060;9.150;2022-08-23T02:33:51;98677.22;;;18.24;57.31
71491;BME280;59307;50.060;9.150;2022-08-23T02:36:16;98689.22;;;18.16;56.20
71491;BME280;59307;50.060;9.150;2022-08-23T02:38:42;98688.03;;;18.22;56.56
71491;BME280;59307;50.060;9.150;2022-08-23T02:41:07;98693.47;;;18.26;57.20
71491;BME280;59307;50.060;9.150;2022-08-23T02:43:33;98688.75;;;18.14;57.46
71491;BME280;59307;50.060;9.150;2022-08-23T02:45:59;98691.44;;;18.01;58.37
71491;BME280;59307;50.060;9.150;2022-08-23T02:48:25;98687.69;;;17.80;58.95
71491;BME280;59307;50.060;9.150;2022-08-23T02:50:51;98698.75;;;17.90;57.39
71491;BME280;59307;50.060;9.150;2022-08-23T02:53:16;98689.81;;;17.91;58.85
71491;BME280;59307;50.060;9.150;2022-08-23T02:55:46;98700.06;;;17.79;58.14
71491;BME280;59307;50.060;9.150;2022-08-23T02:58:11;98692.41;;;17.56;59.79
71491;BME280;59307;50.060;9.150;2022-08-23T03:00:36;98692.47;;;17.64;60.26
71491;BME280;59307;50.060;9.150;2022-08-23T03:03:03;98690.44;;;17.61;58.36
71491;BME280;59307;50.060;9.150;2022-08-23T03:05:28;98690.53;;;17.70;58.24
71491;BME280;59307;50.060;9.150;2022-08-23T03:07:55;98698.50;;;17.78;57.82
71491;BME280;59307;50.060;9.150;2022-08-23T03:10:20;98695.56;;;17.80;57.88
71491;BME280;59307;50.060;9.150;2022-08-23T03:12:46;98697.53;;;17.74;57.93
71491;BME280;59307;50.060;9.150;2022-08-23T03:15:11;98697.53;;;17.74;58.91
71491;BME280;59307;50.060;9.150;2022-08-23T03:17:37;98696.06;;;17.68;60.07
71491;BME280;59307;50.060;9.150;2022-08-23T03:20:03;98695.69;;;17.75;57.86
71491;BME280;59307;50.060;9.150;2022-08-23T03:22:29;98696.84;;;17.82;57.05
71491;BME280;59307;50.060;9.150;2022-08-23T03:24:54;98689.94;;;17.73;58.26
71491;BME280;59307;50.060;9.150;2022-08-23T03:27:19;98702.13;;;17.55;59.98
71491;BME280;59307;50.060;9.150;2022-08-23T03:29:44;98695.50;;;17.44;59.42
71491;BME280;59307;50.060;9.150;2022-08-23T03:32:10;98696.78;;;17.60;58.86
71491;BME280;59307;50.060;9.150;2022-08-23T03:34:35;98702.53;;;17.62;58.05
71491;BME280;59307;50.060;9.150;2022-08-23T03:37:01;98693.09;;;17.48;59.65
71491;BME280;59307;50.060;9.150;2022-08-23T03:39:26;98698.75;;;17.55;58.37
71491;BME280;59307;50.060;9.150;2022-08-23T03:41:51;98705.31;;;17.25;60.84
71491;BME280;59307;50.060;9.150;2022-08-23T03:44:17;98706.09;;;17.25;59.33
71491;BME280;59307;50.060;9.150;2022-08-23T03:46:42;98701.75;;;17.21;61.34
71491;BME280;59307;50.060;9.150;2022-08-23T03:49:08;98697.94;;;17.13;61.55
71491;BME280;59307;50.060;9.150;2022-08-23T03:51:33;98702.13;;;17.14;61.04
71491;BME280;59307;50.060;9.150;2022-08-23T03:53:59;98711.66;;;17.24;61.69
71491;BME280;59307;50.060;9.150;2022-08-23T03:56:34;98710.13;;;17.23;61.23
71491;BME280;59307;50.060;9.150;2022-08-23T03:59:04;98710.47;;;17.03;61.16
71491;BME280;59307;50.060;9.150;2022-08-23T04:01:30;98713.28;;;16.93;62.19
71491;BME280;59307;50.060;9.150;2022-08-23T04:03:55;98715.72;;;16.89;61.74
71491;BME280;59307;50.060;9.150;2022-08-23T04:06:24;98717.22;;;16.77;62.48
71491;BME280;59307;50.060;9.150;2022-08-23T04:08:49;98715.63;;;16.62;63.26
71491;BME280;59307;50.060;9.150;2022-08-23T04:11:14;98713.44;;;16.51;63.46
71491;BME280;59307;50.060;9.150;2022-08-23T04:13:40;98723.41;;;16.54;64.42
71491;BME280;59307;50.060;9.150;2022-08-23T04:16:06;98721.97;;;16.75;62.09
71491;BME280;59307;50.060;9.150;2022-08-23T04:18:32;98720.44;;;16.74;62.57
71491;BME280;59307;50.060;9.150;2022-08-23T04:21:00;98719.53;;;16.97;62.50
71491;BME280;59307;50.060;9.150;2022-08-23T04:23:26;98731.25;;;16.86;63.08
71491;BME280;59307;50.060;9.150;2022-08-23T04:25:55;98725.03;;;16.82;63.16
71491;BME280;59307;50.060;9.150;2022-08-23T04:28:21;98730.88;;;16.92;61.97
71491;BME280;59307;50.060;9.150;2022-08-23T04:30:47;98731.69;;;17.20;62.45
71491;BME280;59307;50.060;9.150;2022-08-23T04:33:13;98722.75;;;17.21;60.98
71491;BME280;59307;50.060;9.150;2022-08-23T04:35:38;98728.50;;;17.23;60.56
71491;BME280;59307;50.060;9.150;2022-08-23T04:38:05;98731.91;;;17.37;61.08
71491;BME280;59307;50.060;9.150;2022-08-23T04:40:31;98736.00;;;17.43;60.52
71491;BME280;59307;50.060;9.150;2022-08-23T04:43:15;98730.66;;;17.48;61.30
71491;BME280;59307;50.060;9.150;2022-08-23T04:45:40;98740.88;;;17.36;61.96
71491;BME280;59307;50.060;9.150;2022-08-23T04:48:06;98737.16;;;17.37;59.53
71491;BME280;59307;50.060;9.150;2022-08-23T04:50:33;98733.88;;;17.45;61.13
71491;BME280;59307;50.060;9.150;2022-08-23T04:52:58;98738.56;;;17.48;60.73
71491;BME280;59307;50.060;9.150;2022-08-23T04:55:24;98738.94;;;17.55;58.46
71491;BME280;59307;50.060;9.150;2022-08-23T04:57:49;98750.25;;;17.56;59.19
71491;BME280;59307;50.060;9.150;2022-08-23T05:00:15;98750.72;;;17.58;60.24
71491;BME280;59307;50.060;9.150;2022-08-23T05:02:41;98746.72;;;17.74;60.79
71491;BME280;59307;50.060;9.150;2022-08-23T05:05:08;98748.09;;;17.71;59.13
71491;BME280;59307;50.060;9.150;2022-08-23T05:07:35;98755.19;;;17.71;60.82
71491;BME280;59307;50.060;9.150;2022-08-23T05:10:03;98755.69;;;17.73;59.42
71491;BME280;59307;50.060;9.150;2022-08-23T05:12:29;98758.88;;;17.70;59.64
71491;BME280;59307;50.060;9.150;2022-08-23T05:14:55;98766.09;;;17.78;59.05
71491;BME280;59307;50.060;9.150;2022-08-23T05:17:20;98765.97;;;17.83;58.89
71491;BME280;59307;50.060;9.150;2022-08-23T05:19:46;98769.09;;;17.98;61.42
71491;BME280;59307;50.060;9.150;2022-08-23T05:22:11;98770.84;;;18.03;57.31
71491;BME280;59307;50.060;9.150;2022-08-23T05:24:36;98769.66;;;18.09;58.46
71491;BME280;59307;50.060;9.150;2022-08-23T05:27:02;98779.31;;;18.13;57.56
71491;BME280;59307;50.060;9.150;2022-08-23T05:29:27;98780.75;;;18.19;57.80
71491;BME280;59307;50.060;9.150;2022-08-23T05:31:52;98784.72;;;18.30;58.04
71491;BME280;59307;50.060;9.150;2022-08-23T05:34:18;98789.28;;;18.38;57.51
71491;BME280;59307;50.060;9.150;2022-08-23T05:36:44;98785.97;;;18.47;57.27
71491;BME280;59307;50.060;9.150;2022-08-23T05:39:09;98790.03;;;18.53;58.66
71491;BME280;59307;50.060;9.150;2022-08-23T05:41:34;98787.59;;;18.56;57.96
71491;BME280;59307;50.060;9.150;2022-08-23T05:44:00;98784.91;;;18.70;57.27
71491;BME280;59307;50.060;9.150;2022-08-23T05:46:25;98785.25;;;18.77;56.10
71491;BME280;59307;50.060;9.150;2022-08-23T05:48:50;98789.22;;;18.88;56.45
71491;BME280;59307;50.060;9.150;2022-08-23T05:51:22;98790.81;;;18.97;55.96
71491;BME280;59307;50.060;9.150;2022-08-23T05:53:49;98791.94;;;19.05;57.49
71491;BME280;59307;50.060;9.150;2022-08-23T05:56:19;98801.81;;;19.21;58.27
71491;BME280;59307;50.060;9.150;2022-08-23T05:58:46;98796.06;;;19.19;55.23
71491;BME280;59307;50.060;9.150;2022-08-23T06:01:13;98804.22;;;19.32;57.11
71491;BME280;59307;50.060;9.150;2022-08-23T06:03:39;98805.38;;;19.48;56.04
71491;BME280;59307;50.060;9.150;2022-08-23T06:06:04;98804.34;;;19.66;54.48
71491;BME280;59307;50.060;9.150;2022-08-23T06:08:31;98803.03;;;19.85;54.03
71491;BME280;59307;50.060;9.150;2022-08-23T06:11:06;98810.84;;;20.16;52.52
71491;BME280;59307;50.060;9.150;2022-08-23T06:13:33;98809.22;;;20.46;52.79
71491;BME280;59307;50.060;9.150;2022-08-23T06:15:58;98807.19;;;20.77;53.14
71491;BME280;59307;50.060;9.150;2022-08-23T06:18:25;98807.31;;;20.97;50.99
71491;BME280;59307;50.060;9.150;2022-08-23T06:21:05;98803.25;;;21.17;50.44
71491;BME280;59307;50.060;9.150;2022-08-23T06:23:31;98802.22;;;21.01;51.02
71491;BME280;59307;50.060;9.150;2022-08-23T06:25:58;98808.22;;;21.27;50.81
71491;BME280;59307;50.060;9.150;2022-08-23T06:28:24;98815.03;;;21.28;49.74
71491;BME280;59307;50.060;9.150;2022-08-23T06:30:53;98806.72;;;21.00;50.77
71491;BME280;59307;50.060;9.150;2022-08-23T06:33:19;98810.91;;;21.01;50.84
71491;BME280;59307;50.060;9.150;2022-08-23T06:35:45;98811.63;;;21.28;50.34
71491;BME280;59307;50.060;9.150;2022-08-23T06:38:11;98814.66;;;21.55;50.22
71491;BME280;59307;50.060;9.150;2022-08-23T06:40:37;98815.91;;;21.49;49.21
71491;BME280;59307;50.060;9.150;2022-08-23T06:43:02;98816.88;;;21.36;49.82
71491;BME280;59307;50.060;9.150;2022-08-23T06:45:28;98812.00;;;21.09;50.43
71491;BME280;59307;50.060;9.150;2022-08-23T06:47:54;98812.91;;;21.13;49.89
71491;BME280;59307;50.060;9.150;2022-08-23T06:50:19;98815.41;;;21.18;49.84
71491;BME280;59307;50.060;9.150;2022-08-23T06:52:48;98819.44;;;21.15;50.25
71491;BME280;59307;50.060;9.150;2022-08-23T06:55:14;98816.97;;;21.02;50.12
71491;BME280;59307;50.060;9.150;2022-08-23T06:57:39;98817.28;;;20.92;51.15
71491;BME280;59307;50.060;9.150;2022-08-23T07:00:06;98812.94;;;21.04;50.59
71491;BME280;59307;50.060;9.150;2022-08-23T07:02:32;98813.69;;;20.96;50.52
71491;BME280;59307;50.060;9.150;2022-08-23T07:04:58;98819.59;;;21.02;50.96
71491;BME280;59307;50.060;9.150;2022-08-23T07:07:23;98819.34;;;21.50;50.01
71491;BME280;59307;50.060;9.150;2022-08-23T07:09:48;98828.84;;;21.88;48.75
71491;BME280;59307;50.060;9.150;2022-08-23T07:12:14;98826.72;;;22.32;46.22
71491;BME280;59307;50.060;9.150;2022-08-23T07:14:39;98823.41;;;22.55;46.93
71491;BME280;59307;50.060;9.150;2022-08-23T07:17:06;98827.50;;;22.73;46.44
71491;BME280;59307;50.060;9.150;2022-08-23T07:19:34;98830.00;;;23.23;44.72
71491;BME280;59307;50.060;9.150;2022-08-23T07:22:01;98825.91;;;23.26;45.13
71491;BME280;59307;50.060;9.150;2022-08-23T07:24:28;98826.44;;;22.86;46.21
71491;BME280;59307;50.060;9.150;2022-08-23T07:26:54;98832.06;;;23.38;44.71
71491;BME280;59307;50.060;9.150;2022-08-23T07:29:20;98832.06;;;23.38;44.40
71491;BME280;59307;50.060;9.150;2022-08-23T07:31:49;98839.50;;;23.24;44.42
71491;BME280;59307;50.060;9.150;2022-08-23T07:34:16;98837.81;;;23.52;43.99
71491;BME280;59307;50.060;9.150;2022-08-23T07:36:43;98834.53;;;23.79;43.25
71491;BME280;59307;50.060;9.150;2022-08-23T07:39:09;98843.13;;;23.52;43.50
71491;BME280;59307;50.060;9.150;2022-08-23T07:41:35;98835.28;;;23.80;42.33
71491;BME280;59307;50.060;9.150;2022-08-23T07:44:04;98839.97;;;24.07;42.08
71491;BME280;59307;50.060;9.150;2022-08-23T07:46:31;98839.94;;;24.19;41.85
71491;BME280;59307;50.060;9.150;2022-08-23T07:48:58;98847.38;;;24.14;42.49
71491;BME280;59307;50.060;9.150;2022-08-23T07:51:26;98842.72;;;24.23;42.13
71491;BME280;59307;50.060;9.150;2022-08-23T07:53:52;98851.34;;;24.20;42.69
71491;BME280;59307;50.060;9.150;2022-08-23T07:56:19;98846.81;;;24.08;42.55
71491;BME280;59307;50.060;9.150;2022-08-23T07:58:45;98851.16;;;24.13;42.25
71491;BME280;59307;50.060;9.150;2022-08-23T08:01:17;98850.63;;;24.47;41.80
71491;BME280;59307;50.060;9.150;2022-08-23T08:03:46;98851.25;;;24.68;41.48
71491;BME280;59307;50.060;9.150;2022-08-23T08:06:14;98847.75;;;24.91;41.18
71491;BME280;59307;50.060;9.150;2022-08-23T08:08:40;98848.22;;;25.09;40.36
71491;BME280;59307;50.060;9.150;2022-08-23T08:11:08;98858.56;;;25.26;40.22
71491;BME280;59307;50.060;9.150;2022-08-23T08:13:40;98855.53;;;25.12;39.91
71491;BME280;59307;50.060;9.150;2022-08-23T08:16:07;98860.97;;;25.31;39.73
71491;BME280;59307;50.060;9.150;2022-08-23T08:18:34;98860.00;;;25.24;39.75
71491;BME280;59307;50.060;9.150;2022-08-23T08:21:00;98857.50;;;25.43;39.80
71491;BME280;59307;50.060;9.150;2022-08-23T08:23:26;98860.63;;;25.60;38.89
71491;BME280;59307;50.060;9.150;2022-08-23T08:26:04;98865.66;;;25.81;38.92
71491;BME280;59307;50.060;9.150;2022-08-23T08:28:30;98861.03;;;26.09;38.61
71491;BME280;59307;50.060;9.150;2022-08-23T08:30:56;98862.06;;;26.05;39.08
71491;BME280;59307;50.060;9.150;2022-08-23T08:33:21;98861.94;;;26.17;38.08
71491;BME280;59307;50.060;9.150;2022-08-23T08:35:47;98861.78;;;26.25;37.81
71491;BME280;59307;50.060;9.150;2022-08-23T08:38:13;98857.53;;;26.05;38.53
71491;BME280;59307;50.060;9.150;2022-08-23T08:40:39;98858.97;;;26.37;37.89
71491;BME280;59307;50.060;9.150;2022-08-23T08:43:30;98876.41;;;26.50;37.67
71491;BME280;59307;50.060;9.150;2022-08-23T08:46:04;98874.00;;;26.80;36.68
71491;BME280;59307;50.060;9.150;2022-08-23T08:48:38;98875.38;;;26.55;38.19
71491;BME280;59307;50.060;9.150;2022-08-23T08:51:17;98874.63;;;26.73;37.09
71491;BME280;59307;50.060;9.150;2022-08-23T08:53:46;98873.16;;;26.41;38.12
71491;BME280;59307;50.060;9.150;2022-08-23T08:56:18;98875.19;;;26.83;37.42
71491;BME280;59307;50.060;9.150;2022-08-23T08:58:58;98873.25;;;26.64;38.00
71491;BME280;59307;50.060;9.150;2022-08-23T09:01:24;98883.53;;;26.46;37.92
71491;BME280;59307;50.060;9.150;2022-08-23T09:03:51;98881.66;;;26.47;37.07
71491;BME280;59307;50.060;9.150;2022-08-23T09:14:32;98881.34;;;27.44;35.42
71491;BME280;59307;50.060;9.150;2022-08-23T09:17:19;98875.75;;;26.92;36.92
71491;BME280;59307;50.060;9.150;2022-08-23T09:19:47;98873.97;;;27.18;36.63
71491;BME280;59307;50.060;9.150;2022-08-23T09:22:31;98875.00;;;27.74;36.03
71491;BME280;59307;50.060;9.150;2022-08-23T09:24:59;98887.81;;;27.65;35.74
71491;BME280;59307;50.060;9.150;2022-08-23T09:27:25;98876.94;;;27.55;35.25
71491;BME280;59307;50.060;9.150;2022-08-23T09:29:56;98879.75;;;27.39;35.59
71491;BME280;59307;50.060;9.150;2022-08-23T09:32:30;98874.09;;;27.67;35.02
71491;BME280;59307;50.060;9.150;2022-08-23T09:35:21;98872.19;;;27.67;35.68
71491;BME280;59307;50.060;9.150;2022-08-23T09:37:56;98864.44;;;28.08;35.13
71491;BME280;59307;50.060;9.150;2022-08-23T09:43:10;98865.50;;;28.29;33.63
71491;BME280;59307;50.060;9.150;2022-08-23T09:45:40;98864.81;;;28.58;32.99
71491;BME280;59307;50.060;9.150;2022-08-23T09:48:11;98863.63;;;28.30;32.68
71491;BME280;59307;50.060;9.150;2022-08-23T09:50:40;98858.19;;;28.82;33.11
71491;BME280;59307;50.060;9.150;2022-08-23T09:53:11;98858.63;;;29.21;32.74
71491;BME280;59307;50.060;9.150;2022-08-23T09:55:47;98854.53;;;28.34;32.70
71491;BME280;59307;50.060;9.150;2022-08-23T09:58:38;98847.34;;;28.42;33.50
71491;BME280;59307;50.060;9.150;2022-08-23T10:01:18;98849.94;;;28.94;32.41
71491;BME280;59307;50.060;9.150;2022-08-23T10:03:44;98851.53;;;29.02;31.91
71491;BME280;59307;50.060;9.150;2022-08-23T10:06:12;98848.94;;;29.46;31.38
71491;BME280;59307;50.060;9.150;2022-08-23T10:08:51;98851.69;;;29.56;30.95
71491;BME280;59307;50.060;9.150;2022-08-23T10:11:21;98851.59;;;29.42;31.16
71491;BME280;59307;50.060;9.150;2022-08-23T10:13:48;98845.44;;;29.05;30.26
71491;BME280;59307;50.060;9.150;2022-08-23T10:18:48;98838.38;;;29.23;31.13
71491;BME280;59307;50.060;9.150;2022-08-23T10:21:41;98836.91;;;29.73;30.87
71491;BME280;59307;50.060;9.150;2022-08-23T10:24:21;98846.56;;;29.85;29.84
71491;BME280;59307;50.060;9.150;2022-08-23T10:26:58;98842.66;;;29.72;29.04
71491;BME280;59307;50.060;9.150;2022-08-23T10:29:38;98843.09;;;29.81;27.18
71491;BME280;59307;50.060;9.150;2022-08-23T10:37:46;98835.47;;;29.83;27.92
71491;BME280;59307;50.060;9.150;2022-08-23T10:40:24;98832.31;;;30.28;28.61
71491;BME280;59307;50.060;9.150;2022-08-23T10:45:34;98831.88;;;30.26;29.23
71491;BME280;59307;50.060;9.150;2022-08-23T10:51:04;98832.91;;;30.79;28.59
71491;BME280;59307;50.060;9.150;2022-08-23T10:53:38;98829.13;;;30.94;28.46
71491;BME280;59307;50.060;9.150;2022-08-23T10:56:11;98826.06;;;30.96;28.30
71491;BME280;59307;50.060;9.150;2022-08-23T10:58:47;98820.69;;;30.89;26.39
71491;BME280;59307;50.060;9.150;2022-08-23T11:01:52;98822.44;;;30.46;28.67
71491;BME280;59307;50.060;9.150;2022-08-23T11:04:23;98817.84;;;30.50;27.61
71491;BME280;59307;50.060;9.150;2022-08-23T11:06:54;98811.66;;;30.39;27.24
71491;BME280;59307;50.060;9.150;2022-08-23T11:09:30;98822.16;;;30.79;27.48
71491;BME280;59307;50.060;9.150;2022-08-23T11:12:16;98816.53;;;31.26;27.18
71491;BME280;59307;50.060;9.150;2022-08-23T11:17:25;98811.72;;;29.85;28.45
71491;BME280;59307;50.060;9.150;2022-08-23T11:19:57;98808.22;;;30.45;28.25
71491;BME280;59307;50.060;9.150;2022-08-23T11:22:30;98813.69;;;30.67;27.45
71491;BME280;59307;50.060;9.150;2022-08-23T11:25:02;98809.03;;;30.53;26.55
71491;BME280;59307;50.060;9.150;2022-08-23T11:27:40;98807.28;;;30.10;27.28
71491;BME280;59307;50.060;9.150;2022-08-23T11:35:53;98791.72;;;30.40;27.65
71491;BME280;59307;50.060;9.150;2022-08-23T11:43:45;98797.94;;;29.86;28.04
71491;BME280;59307;50.060;9.150;2022-08-23T11:46:27;98796.19;;;30.11;28.20
71491;BME280;59307;50.060;9.150;2022-08-23T11:51:53;98802.59;;;29.96;28.23
71491;BME280;59307;50.060;9.150;2022-08-23T12:03:12;98794.31;;;30.19;26.90
71491;BME280;59307;50.060;9.150;2022-08-23T12:21:06;98784.66;;;31.67;24.66
71491;BME280;59307;50.060;9.150;2022-08-23T12:23:51;98780.78;;;31.89;25.39
71491;BME280;59307;50.060;9.150;2022-08-23T12:28:46;98783.50;;;31.29;25.06
71491;BME280;59307;50.060;9.150;2022-08-23T12:34:01;98778.88;;;31.83;24.87
71491;BME280;59307;50.060;9.150;2022-08-23T12:39:19;98776.94;;;31.97;24.34
71491;BME280;59307;50.060;9.150;2022-08-23T12:42:05;98766.19;;;32.01;23.74
71491;BME280;59307;50.060;9.150;2022-08-23T12:44:33;98780.84;;;31.47;24.07
71491;BME280;59307;50.060;9.150;2022-08-23T12:47:16;98780.84;;;31.40;24.48
71491;BME280;59307;50.060;9.150;2022-08-23T12:49:56;98774.56;;;32.27;23.88
71491;BME280;59307;50.060;9.150;2022-08-23T12:52:24;98778.81;;;32.94;22.32
71491;BME280;59307;50.060;9.150;2022-08-23T12:54:51;98779.88;;;32.49;22.56
71491;BME280;59307;50.060;9.150;2022-08-23T12:57:30;98773.72;;;32.41;22.38
71491;BME280;59307;50.060;9.150;2022-08-23T13:02:34;98777.31;;;34.82;20.93
71491;BME280;59307;50.060;9.150;2022-08-23T13:05:29;98777.63;;;35.84;19.77
71491;BME280;59307;50.060;9.150;2022-08-23T13:07:56;98771.38;;;34.04;21.32
71491;BME280;59307;50.060;9.150;2022-08-23T13:10:22;98763.88;;;32.03;23.88
71491;BME280;59307;50.060;9.150;2022-08-23T13:12:49;98774.69;;;31.47;24.21
71491;BME280;59307;50.060;9.150;2022-08-23T13:15:41;98773.88;;;32.89;23.14
71491;BME280;59307;50.060;9.150;2022-08-23T13:18:08;98766.63;;;35.52;20.19
71491;BME280;59307;50.060;9.150;2022-08-23T13:20:33;98765.22;;;36.45;18.38
71491;BME280;59307;50.060;9.150;2022-08-23T13:23:06;98768.25;;;35.69;19.59
71491;BME280;59307;50.060;9.150;2022-08-23T13:25:36;98762.34;;;34.51;21.50
71491;BME280;59307;50.060;9.150;2022-08-23T13:30:35;98753.97;;;31.54;24.16
71491;BME280;59307;50.060;9.150;2022-08-23T13:35:43;98753.94;;;34.12;22.00
71491;BME280;59307;50.060;9.150;2022-08-23T13:43:17;98760.66;;;37.42;18.57
71491;BME280;59307;50.060;9.150;2022-08-23T13:45:47;98751.25;;;36.99;18.52
71491;BME280;59307;50.060;9.150;2022-08-23T13:48:18;98749.56;;;37.05;18.25
71491;BME280;59307;50.060;9.150;2022-08-23T13:50:44;98740.94;;;34.03;21.08
71491;BME280;59307;50.060;9.150;2022-08-23T13:53:09;98740.50;;;33.23;22.54
71491;BME280;59307;50.060;9.150;2022-08-23T13:55:45;98749.09;;;34.60;21.82
71491;BME280;59307;50.060;9.150;2022-08-23T13:58:31;98742.03;;;35.20;19.82
71491;BME280;59307;50.060;9.150;2022-08-23T14:00:59;98746.50;;;35.30;20.22
71491;BME280;59307;50.060;9.150;2022-08-23T14:03:28;98743.66;;;36.58;18.37
71491;BME280;59307;50.060;9.150;2022-08-23T14:05:55;98741.34;;;37.24;18.00
71491;BME280;59307;50.060;9.150;2022-08-23T14:08:22;98735.56;;;37.83;17.34
71491;BME280;59307;50.060;9.150;2022-08-23T14:10:47;98736.94;;;37.14;17.86
71491;BME280;59307;50.060;9.150;2022-08-23T14:13:14;98735.91;;;37.85;17.38
71491;BME280;59307;50.060;9.150;2022-08-23T14:15:42;98732.50;;;36.72;18.48
71491;BME280;59307;50.060;9.150;2022-08-23T14:18:08;98726.41;;;36.32;17.79
71491;BME280;59307;50.060;9.150;2022-08-23T14:20:34;98724.31;;;35.81;18.31
71491;BME280;59307;50.060;9.150;2022-08-23T14:23:00;98731.53;;;35.68;19.50
71491;BME280;59307;50.060;9.150;2022-08-23T14:25:25;98728.13;;;36.42;18.32
71491;BME280;59307;50.060;9.150;2022-08-23T14:27:51;98729.97;;;36.81;18.57
71491;BME280;59307;50.060;9.150;2022-08-23T14:30:26;98730.97;;;36.55;17.75
71491;BME280;59307;50.060;9.150;2022-08-23T14:32:53;98728.84;;;36.07;18.95
71491;BME280;59307;50.060;9.150;2022-08-23T14:35:18;98725.47;;;34.91;19.81
71491;BME280;59307;50.060;9.150;2022-08-23T14:37:44;98728.78;;;35.25;20.13
71491;BME280;59307;50.060;9.150;2022-08-23T14:40:10;98725.97;;;34.82;20.10